OMA1553 LTBR-OOMS
Flight info
| Callsign | OMA1553 |
|---|---|
| Flight time | N/A |
| Altitude | 35000 |
| Route | SULT1D SULTA UT409 ROXUK UN617 VAPEK UT38 UMDOT UA28 DOREN N131 LCA M601 BALMA UR655 CAK UN310 LATEB N310 BASEM R785 RASLI P559 GADLI T503 KSA M440 OTALI/N0454F370 M440 SITER DCT KATIT DCT MIDGU M717 PUTSO N685 LAKLU LAKL1A |
| Aircraft | A321/M-SDE3FGHIRWY/LB1 |
Departure
| Time | 2026-05-05 14:05 |
|---|---|
| Airport | Bursa Yenişehir Airport (LTBR) |
Arrival
| Time | N/A |
|---|---|
| Airport | Muscat International Airport (OOMS) |
| Time | Latitude | Longitude | Altitude | Speed | Heading |
|---|---|---|---|---|---|
| 2026-05-05 13:47 | 40.25592 | 29.54444 | 778 ft | 0 kts | 343° |
| 2026-05-05 13:55 | 40.25548 | 29.54461 | 778 ft | 7 kts | 343° |
| 2026-05-05 13:55 | 40.25517 | 29.54430 | 778 ft | 7 kts | 74° |
| 2026-05-05 13:55 | 40.25511 | 29.54403 | 778 ft | 0 kts | 74° |
| 2026-05-05 13:58 | 40.25514 | 29.54416 | 778 ft | 5 kts | 74° |
| 2026-05-05 13:59 | 40.25416 | 29.54485 | 778 ft | 16 kts | 166° |
| 2026-05-05 13:59 | 40.25307 | 29.54524 | 778 ft | 14 kts | 164° |
| 2026-05-05 14:00 | 40.25252 | 29.54687 | 778 ft | 17 kts | 74° |
| 2026-05-05 14:00 | 40.25294 | 29.54883 | 778 ft | 27 kts | 74° |
| 2026-05-05 14:00 | 40.25350 | 29.55143 | 778 ft | 30 kts | 75° |
| 2026-05-05 14:00 | 40.25407 | 29.55412 | 778 ft | 31 kts | 74° |
| 2026-05-05 14:01 | 40.25464 | 29.55677 | 778 ft | 31 kts | 74° |
| 2026-05-05 14:01 | 40.25521 | 29.55946 | 778 ft | 31 kts | 75° |
| 2026-05-05 14:01 | 40.25577 | 29.56215 | 778 ft | 31 kts | 74° |
| 2026-05-05 14:01 | 40.25634 | 29.56483 | 778 ft | 31 kts | 74° |
| 2026-05-05 14:02 | 40.25691 | 29.56751 | 778 ft | 30 kts | 74° |
| 2026-05-05 14:02 | 40.25748 | 29.57019 | 778 ft | 30 kts | 74° |
| 2026-05-05 14:02 | 40.25803 | 29.57283 | 778 ft | 30 kts | 74° |
| 2026-05-05 14:02 | 40.25860 | 29.57549 | 778 ft | 30 kts | 74° |
| 2026-05-05 14:03 | 40.25918 | 29.57816 | 778 ft | 29 kts | 74° |
| 2026-05-05 14:03 | 40.25951 | 29.57899 | 778 ft | 4 kts | 27° |
| 2026-05-05 14:03 | 40.25955 | 29.57927 | 778 ft | 4 kts | 135° |
| 2026-05-05 14:03 | 40.25938 | 29.57920 | 778 ft | 2 kts | 243° |
| 2026-05-05 14:04 | 40.25933 | 29.57894 | 778 ft | 6 kts | 255° |
| 2026-05-05 14:04 | 40.25863 | 29.57567 | 778 ft | 68 kts | 254° |
| 2026-05-05 14:04 | 40.25688 | 29.56740 | 778 ft | 119 kts | 255° |
| 2026-05-05 14:04 | 40.25428 | 29.55515 | 787 ft | 156 kts | 254° |
| 2026-05-05 14:05 | 40.25130 | 29.54154 | 1164 ft | 154 kts | 254° |
| 2026-05-05 14:05 | 40.24827 | 29.52801 | 1643 ft | 155 kts | 254° |
| 2026-05-05 14:05 | 40.24518 | 29.51420 | 2065 ft | 160 kts | 254° |
| 2026-05-05 14:05 | 40.24189 | 29.49932 | 2313 ft | 184 kts | 254° |
| 2026-05-05 14:06 | 40.23817 | 29.48248 | 2438 ft | 203 kts | 254° |
| 2026-05-05 14:06 | 40.23354 | 29.46509 | 2949 ft | 204 kts | 241° |
| 2026-05-05 14:06 | 40.22341 | 29.45220 | 3485 ft | 209 kts | 210° |
| 2026-05-05 14:06 | 40.20917 | 29.44805 | 3950 ft | 215 kts | 179° |
| 2026-05-05 14:07 | 40.19496 | 29.45416 | 4409 ft | 219 kts | 147° |
| 2026-05-05 14:07 | 40.18461 | 29.46865 | 4891 ft | 220 kts | 124° |
| 2026-05-05 14:07 | 40.17532 | 29.48617 | 5009 ft | 249 kts | 122° |
| 2026-05-05 14:07 | 40.16543 | 29.50642 | 5247 ft | 275 kts | 118° |
| 2026-05-05 14:08 | 40.15696 | 29.52860 | 6004 ft | 271 kts | 111° |
| 2026-05-05 14:08 | 40.15073 | 29.55204 | 6598 ft | 274 kts | 102° |
| 2026-05-05 14:08 | 40.14732 | 29.57643 | 7295 ft | 272 kts | 93° |
| 2026-05-05 14:08 | 40.14682 | 29.60082 | 7924 ft | 272 kts | 83° |
| 2026-05-05 14:09 | 40.14917 | 29.62527 | 8595 ft | 271 kts | 78° |
| 2026-05-05 14:09 | 40.14811 | 29.65018 | 9168 ft | 282 kts | 102° |
| 2026-05-05 14:09 | 40.13902 | 29.67306 | 9786 ft | 290 kts | 126° |
| 2026-05-05 14:09 | 40.12331 | 29.69008 | 10272 ft | 303 kts | 147° |
| 2026-05-05 14:10 | 40.10364 | 29.70288 | 10374 ft | 327 kts | 152° |
| 2026-05-05 14:10 | 40.08243 | 29.71606 | 10475 ft | 347 kts | 152° |
| 2026-05-05 14:10 | 40.05993 | 29.72823 | 11063 ft | 352 kts | 160° |
| 2026-05-05 14:10 | 40.03568 | 29.73432 | 11634 ft | 358 kts | 175° |
| 2026-05-05 14:11 | 40.01067 | 29.73318 | 12243 ft | 361 kts | 184° |
| 2026-05-05 14:11 | 39.98580 | 29.73041 | 12794 ft | 366 kts | 185° |
| 2026-05-05 14:11 | 39.96027 | 29.72733 | 13372 ft | 369 kts | 185° |
| 2026-05-05 14:11 | 39.93456 | 29.72409 | 13935 ft | 373 kts | 185° |
| 2026-05-05 14:12 | 39.90852 | 29.72257 | 14482 ft | 377 kts | 177° |
| 2026-05-05 14:12 | 39.88253 | 29.72749 | 15026 ft | 379 kts | 165° |
| 2026-05-05 14:12 | 39.85759 | 29.73896 | 15568 ft | 381 kts | 156° |
| 2026-05-05 14:12 | 39.83295 | 29.75228 | 16085 ft | 385 kts | 155° |
| 2026-05-05 14:13 | 39.80816 | 29.76591 | 16613 ft | 389 kts | 155° |
| 2026-05-05 14:13 | 39.78313 | 29.77979 | 17126 ft | 392 kts | 155° |
| 2026-05-05 14:13 | 39.75790 | 29.79385 | 17636 ft | 396 kts | 155° |
| 2026-05-05 14:13 | 39.73244 | 29.80808 | 18134 ft | 400 kts | 155° |
| 2026-05-05 14:14 | 39.70676 | 29.82246 | 18624 ft | 404 kts | 155° |
| 2026-05-05 14:14 | 39.68105 | 29.83687 | 19091 ft | 407 kts | 155° |
| 2026-05-05 14:14 | 39.65487 | 29.85155 | 19551 ft | 411 kts | 155° |
| 2026-05-05 14:14 | 39.62853 | 29.86634 | 19994 ft | 414 kts | 155° |
| 2026-05-05 14:15 | 39.60198 | 29.88123 | 20425 ft | 418 kts | 155° |
| 2026-05-05 14:15 | 39.57545 | 29.89611 | 20836 ft | 421 kts | 155° |
| 2026-05-05 14:15 | 39.54841 | 29.91127 | 21240 ft | 424 kts | 155° |
| 2026-05-05 14:15 | 39.52119 | 29.92653 | 21633 ft | 427 kts | 155° |
| 2026-05-05 14:16 | 39.49375 | 29.94198 | 22013 ft | 431 kts | 155° |
| 2026-05-05 14:16 | 39.46605 | 29.95762 | 22257 ft | 437 kts | 154° |
| 2026-05-05 14:16 | 39.43811 | 29.97340 | 22672 ft | 439 kts | 154° |
| 2026-05-05 14:16 | 39.41038 | 29.98905 | 23002 ft | 442 kts | 154° |
| 2026-05-05 14:17 | 39.38205 | 30.00504 | 23319 ft | 446 kts | 154° |
| 2026-05-05 14:17 | 39.35338 | 30.02115 | 23499 ft | 453 kts | 154° |
| 2026-05-05 14:17 | 39.32447 | 30.03739 | 23896 ft | 453 kts | 153° |
| 2026-05-05 14:17 | 39.29542 | 30.05377 | 24186 ft | 456 kts | 153° |
| 2026-05-05 14:18 | 39.26627 | 30.07020 | 24498 ft | 458 kts | 153° |
| 2026-05-05 14:18 | 39.23705 | 30.08667 | 24886 ft | 458 kts | 153° |
| 2026-05-05 14:18 | 39.20768 | 30.10320 | 25145 ft | 461 kts | 153° |
| 2026-05-05 14:18 | 39.17809 | 30.11985 | 25434 ft | 463 kts | 153° |
| 2026-05-05 14:19 | 39.14840 | 30.13654 | 25706 ft | 466 kts | 153° |
| 2026-05-05 14:19 | 39.11867 | 30.15324 | 25969 ft | 468 kts | 153° |
| 2026-05-05 14:19 | 39.08905 | 30.16986 | 26218 ft | 470 kts | 153° |
| 2026-05-05 14:19 | 39.05904 | 30.18667 | 26472 ft | 472 kts | 153° |
| 2026-05-05 14:20 | 39.02887 | 30.20352 | 26706 ft | 474 kts | 153° |
| 2026-05-05 14:20 | 38.99855 | 30.22046 | 26934 ft | 476 kts | 153° |
| 2026-05-05 14:20 | 38.96810 | 30.23746 | 27153 ft | 478 kts | 153° |
| 2026-05-05 14:20 | 38.93753 | 30.25453 | 27365 ft | 480 kts | 153° |
| 2026-05-05 14:21 | 38.90683 | 30.27166 | 27568 ft | 482 kts | 153° |
| 2026-05-05 14:21 | 38.87592 | 30.28891 | 27764 ft | 484 kts | 153° |
| 2026-05-05 14:21 | 38.84535 | 30.30596 | 27949 ft | 485 kts | 153° |
| 2026-05-05 14:21 | 38.81434 | 30.32325 | 28130 ft | 487 kts | 153° |
| 2026-05-05 14:22 | 38.78319 | 30.34060 | 28307 ft | 489 kts | 153° |
| 2026-05-05 14:22 | 38.75186 | 30.35805 | 28478 ft | 491 kts | 153° |
| 2026-05-05 14:22 | 38.72047 | 30.37551 | 28647 ft | 493 kts | 153° |
| 2026-05-05 14:22 | 38.68894 | 30.39304 | 28814 ft | 494 kts | 153° |
| 2026-05-05 14:23 | 38.65726 | 30.41064 | 28979 ft | 496 kts | 154° |
| 2026-05-05 14:23 | 38.62555 | 30.42824 | 29144 ft | 498 kts | 154° |
| 2026-05-05 14:23 | 38.59371 | 30.44591 | 29308 ft | 499 kts | 154° |
| 2026-05-05 14:23 | 38.56215 | 30.46340 | 29469 ft | 501 kts | 154° |
| 2026-05-05 14:24 | 38.53006 | 30.48117 | 29630 ft | 502 kts | 154° |
| 2026-05-05 14:24 | 38.49772 | 30.49907 | 29791 ft | 504 kts | 154° |
| 2026-05-05 14:24 | 38.43338 | 30.53472 | 30027 ft | 508 kts | 155° |
| 2026-05-05 14:25 | 38.40091 | 30.55263 | 30225 ft | 509 kts | 155° |
| 2026-05-05 14:25 | 38.36836 | 30.57057 | 30399 ft | 510 kts | 155° |
| 2026-05-05 14:25 | 38.33572 | 30.58854 | 30574 ft | 510 kts | 154° |
| 2026-05-05 14:25 | 38.30382 | 30.60858 | 30741 ft | 509 kts | 148° |
| 2026-05-05 14:26 | 38.27408 | 30.63292 | 30908 ft | 507 kts | 141° |
| 2026-05-05 14:26 | 38.24716 | 30.66111 | 31069 ft | 505 kts | 134° |
| 2026-05-05 14:26 | 38.22134 | 30.69135 | 31235 ft | 505 kts | 133° |
| 2026-05-05 14:26 | 38.19549 | 30.72183 | 31388 ft | 506 kts | 133° |
| 2026-05-05 14:27 | 38.16971 | 30.75231 | 31556 ft | 507 kts | 133° |
| 2026-05-05 14:27 | 38.14388 | 30.78290 | 31718 ft | 508 kts | 133° |
| 2026-05-05 14:27 | 38.11801 | 30.81355 | 31884 ft | 508 kts | 133° |
| 2026-05-05 14:27 | 38.09215 | 30.84421 | 32053 ft | 509 kts | 133° |
| 2026-05-05 14:28 | 38.06626 | 30.87491 | 32275 ft | 508 kts | 133° |
| 2026-05-05 14:28 | 38.04055 | 30.90540 | 32541 ft | 505 kts | 133° |
| 2026-05-05 14:28 | 38.01489 | 30.93582 | 32805 ft | 503 kts | 133° |
| 2026-05-05 14:28 | 37.98967 | 30.96572 | 33045 ft | 502 kts | 133° |
| 2026-05-05 14:29 | 37.96417 | 30.99595 | 33293 ft | 500 kts | 134° |
| 2026-05-05 14:29 | 37.93881 | 31.02600 | 33537 ft | 498 kts | 134° |
| 2026-05-05 14:29 | 37.91350 | 31.05597 | 33762 ft | 497 kts | 134° |
| 2026-05-05 14:29 | 37.88811 | 31.08604 | 33988 ft | 496 kts | 134° |
| 2026-05-05 14:30 | 37.86295 | 31.11580 | 34197 ft | 495 kts | 134° |
| 2026-05-05 14:30 | 37.84622 | 31.13558 | 34304 ft | 495 kts | 134° |
| 2026-05-05 14:30 | 37.81278 | 31.17510 | 34542 ft | 495 kts | 135° |
| 2026-05-05 14:30 | 37.78759 | 31.20483 | 34758 ft | 494 kts | 135° |
| 2026-05-05 14:31 | 37.76246 | 31.23448 | 34949 ft | 495 kts | 135° |
| 2026-05-05 14:31 | 37.74581 | 31.25412 | 34992 ft | 496 kts | 135° |
| 2026-05-05 14:31 | 37.69531 | 31.31355 | 35018 ft | 494 kts | 135° |
| 2026-05-05 14:32 | 37.64497 | 31.37269 | 35012 ft | 494 kts | 135° |
| 2026-05-05 14:32 | 37.59464 | 31.43173 | 35009 ft | 494 kts | 135° |
| 2026-05-05 14:33 | 37.54430 | 31.49067 | 35006 ft | 494 kts | 136° |
| 2026-05-05 14:33 | 37.49383 | 31.54969 | 35021 ft | 496 kts | 136° |
| 2026-05-05 14:34 | 37.44326 | 31.60873 | 35005 ft | 498 kts | 136° |
| 2026-05-05 14:34 | 37.39228 | 31.66807 | 35006 ft | 498 kts | 136° |
| 2026-05-05 14:35 | 37.34489 | 31.73136 | 35011 ft | 498 kts | 127° |
| 2026-05-05 14:35 | 37.30252 | 31.80024 | 35012 ft | 498 kts | 126° |
| 2026-05-05 14:36 | 37.26028 | 31.86937 | 35015 ft | 499 kts | 126° |
| 2026-05-05 14:36 | 37.21804 | 31.93868 | 35016 ft | 500 kts | 126° |
| 2026-05-05 14:37 | 37.17586 | 32.00803 | 35019 ft | 500 kts | 126° |
| 2026-05-05 14:37 | 37.13392 | 32.07707 | 35021 ft | 501 kts | 127° |
| 2026-05-05 14:38 | 37.09155 | 32.14679 | 35020 ft | 502 kts | 127° |
| 2026-05-05 14:38 | 37.04929 | 32.21626 | 35019 ft | 501 kts | 127° |
| 2026-05-05 14:39 | 37.00698 | 32.28575 | 35016 ft | 501 kts | 127° |
| 2026-05-05 14:39 | 36.96498 | 32.35463 | 35013 ft | 501 kts | 127° |
| 2026-05-05 14:40 | 36.92271 | 32.42388 | 35011 ft | 500 kts | 127° |
| 2026-05-05 14:40 | 36.88039 | 32.49285 | 35007 ft | 500 kts | 128° |
| 2026-05-05 14:41 | 36.83769 | 32.56130 | 35003 ft | 499 kts | 128° |
| 2026-05-05 14:41 | 36.79504 | 32.62970 | 35001 ft | 498 kts | 128° |
| 2026-05-05 14:42 | 36.75276 | 32.69758 | 34999 ft | 498 kts | 128° |
| 2026-05-05 14:42 | 36.70998 | 32.76627 | 34998 ft | 498 kts | 128° |
| 2026-05-05 14:43 | 36.66783 | 32.83397 | 34997 ft | 497 kts | 128° |
| 2026-05-05 14:43 | 36.62535 | 32.90211 | 34998 ft | 497 kts | 129° |
| 2026-05-05 14:44 | 36.58286 | 32.97015 | 35000 ft | 498 kts | 129° |
| 2026-05-05 14:44 | 36.54030 | 33.03820 | 34987 ft | 498 kts | 129° |
| 2026-05-05 14:45 | 36.49793 | 33.10588 | 34982 ft | 498 kts | 129° |
| 2026-05-05 14:45 | 36.45529 | 33.17385 | 34980 ft | 498 kts | 129° |
| 2026-05-05 14:46 | 36.41025 | 33.23902 | 34970 ft | 492 kts | 142° |
| 2026-05-05 14:46 | 36.38202 | 33.26215 | 34971 ft | 484 kts | 156° |
| 2026-05-05 14:46 | 36.35070 | 33.27655 | 34971 ft | 477 kts | 170° |
| 2026-05-05 14:47 | 36.31807 | 33.28169 | 34972 ft | 469 kts | 183° |
| 2026-05-05 14:47 | 36.28543 | 33.28211 | 34972 ft | 469 kts | 184° |
| 2026-05-05 14:47 | 36.22055 | 33.28246 | 34967 ft | 469 kts | 185° |
| 2026-05-05 14:48 | 36.15516 | 33.28261 | 34966 ft | 470 kts | 184° |
| 2026-05-05 14:48 | 36.08953 | 33.28419 | 34966 ft | 470 kts | 184° |
| 2026-05-05 14:49 | 36.02436 | 33.28520 | 34965 ft | 469 kts | 186° |
| 2026-05-05 14:49 | 35.95935 | 33.28304 | 34965 ft | 463 kts | 186° |
| 2026-05-05 14:50 | 35.89477 | 33.28837 | 34964 ft | 473 kts | 171° |
| 2026-05-05 14:50 | 35.83132 | 33.30903 | 34967 ft | 474 kts | 169° |
| 2026-05-05 14:51 | 35.76769 | 33.33013 | 34969 ft | 472 kts | 169° |
| 2026-05-05 14:51 | 35.70407 | 33.35128 | 34971 ft | 474 kts | 169° |
| 2026-05-05 14:52 | 35.64033 | 33.37250 | 34973 ft | 473 kts | 169° |
| 2026-05-05 14:52 | 35.57716 | 33.39354 | 34975 ft | 472 kts | 169° |
| 2026-05-05 14:53 | 35.51368 | 33.41469 | 34976 ft | 472 kts | 169° |
| 2026-05-05 14:53 | 35.45026 | 33.43581 | 34977 ft | 471 kts | 169° |
| 2026-05-05 14:54 | 35.38738 | 33.45674 | 34977 ft | 469 kts | 169° |
| 2026-05-05 14:54 | 35.32440 | 33.47768 | 34977 ft | 469 kts | 169° |
| 2026-05-05 14:55 | 35.26123 | 33.49865 | 34976 ft | 470 kts | 169° |
| 2026-05-05 14:55 | 35.19808 | 33.51959 | 34975 ft | 471 kts | 169° |
| 2026-05-05 14:56 | 35.13466 | 33.54060 | 34973 ft | 471 kts | 169° |
| 2026-05-05 14:56 | 35.07174 | 33.56141 | 34973 ft | 470 kts | 169° |
| 2026-05-05 14:57 | 35.00864 | 33.58226 | 34972 ft | 470 kts | 169° |
| 2026-05-05 14:57 | 34.94557 | 33.60359 | 34966 ft | 472 kts | 166° |
| 2026-05-05 14:58 | 34.91560 | 33.62069 | 34964 ft | 481 kts | 153° |
| 2026-05-05 14:58 | 34.88899 | 33.64612 | 34965 ft | 489 kts | 139° |
| 2026-05-05 14:58 | 34.86798 | 33.67837 | 34962 ft | 496 kts | 124° |
| 2026-05-05 14:58 | 34.85342 | 33.71672 | 34968 ft | 500 kts | 111° |
| 2026-05-05 14:59 | 34.83060 | 33.79684 | 34964 ft | 500 kts | 110° |
| 2026-05-05 14:59 | 34.80836 | 33.87639 | 34963 ft | 499 kts | 110° |
| 2026-05-05 15:00 | 34.78977 | 33.94346 | 34963 ft | 499 kts | 110° |
| 2026-05-05 15:00 | 34.76410 | 34.03650 | 34963 ft | 499 kts | 110° |
| 2026-05-05 15:01 | 34.74213 | 34.11650 | 34963 ft | 499 kts | 110° |
| 2026-05-05 15:01 | 34.72006 | 34.19639 | 34963 ft | 498 kts | 110° |
| 2026-05-05 15:02 | 34.69814 | 34.27613 | 34954 ft | 496 kts | 111° |
| 2026-05-05 15:02 | 34.67634 | 34.35532 | 34950 ft | 497 kts | 111° |
| 2026-05-05 15:03 | 34.65440 | 34.43503 | 34946 ft | 497 kts | 111° |
| 2026-05-05 15:03 | 34.63245 | 34.51480 | 34941 ft | 497 kts | 111° |
| 2026-05-05 15:04 | 34.61061 | 34.59417 | 34938 ft | 498 kts | 111° |
| 2026-05-05 15:04 | 34.58860 | 34.67389 | 34936 ft | 498 kts | 112° |
| 2026-05-05 15:05 | 34.55546 | 34.79364 | 34934 ft | 499 kts | 112° |
| 2026-05-05 15:06 | 34.53332 | 34.87343 | 34935 ft | 499 kts | 112° |
| 2026-05-05 15:06 | 34.51118 | 34.95303 | 34940 ft | 496 kts | 112° |
| 2026-05-05 15:07 | 34.48920 | 35.03185 | 34944 ft | 496 kts | 112° |
| 2026-05-05 15:07 | 34.46691 | 35.11105 | 34947 ft | 496 kts | 112° |
| 2026-05-05 15:08 | 34.44462 | 35.19019 | 34951 ft | 495 kts | 112° |
| 2026-05-05 15:08 | 34.42241 | 35.26927 | 34954 ft | 495 kts | 111° |
| 2026-05-05 15:09 | 34.40031 | 35.34810 | 34957 ft | 494 kts | 111° |
| 2026-05-05 15:09 | 34.37836 | 35.42651 | 34958 ft | 495 kts | 112° |
| 2026-05-05 15:10 | 34.35627 | 35.50529 | 34956 ft | 494 kts | 112° |
| 2026-05-05 15:10 | 34.33417 | 35.58404 | 34952 ft | 494 kts | 112° |
| 2026-05-05 15:11 | 34.31198 | 35.66299 | 34948 ft | 495 kts | 112° |
| 2026-05-05 15:11 | 34.28676 | 35.74020 | 34944 ft | 492 kts | 118° |
| 2026-05-05 15:12 | 34.25804 | 35.81497 | 34938 ft | 493 kts | 119° |
| 2026-05-05 15:12 | 34.22912 | 35.89021 | 34931 ft | 494 kts | 119° |
| 2026-05-05 15:13 | 34.20821 | 35.96952 | 34915 ft | 505 kts | 98° |
| 2026-05-05 15:13 | 34.20573 | 36.05458 | 34912 ft | 503 kts | 105° |
| 2026-05-05 15:13 | 34.19477 | 36.09420 | 34918 ft | 495 kts | 118° |
| 2026-05-05 15:14 | 34.17995 | 36.13174 | 34918 ft | 494 kts | 121° |
| 2026-05-05 15:14 | 34.14964 | 36.20582 | 34913 ft | 494 kts | 121° |
| 2026-05-05 15:15 | 34.11939 | 36.28050 | 34913 ft | 494 kts | 121° |
| 2026-05-05 15:15 | 34.08829 | 36.35387 | 34906 ft | 488 kts | 131° |
| 2026-05-05 15:15 | 34.06595 | 36.38394 | 34910 ft | 472 kts | 147° |
| 2026-05-05 15:16 | 34.03945 | 36.40652 | 34920 ft | 467 kts | 152° |
| 2026-05-05 15:16 | 33.98639 | 36.45098 | 34919 ft | 472 kts | 147° |
| 2026-05-05 15:17 | 33.94241 | 36.51117 | 34915 ft | 496 kts | 126° |
| 2026-05-05 15:17 | 33.91507 | 36.58851 | 34920 ft | 504 kts | 118° |
| 2026-05-05 15:18 | 33.88903 | 36.66651 | 34918 ft | 505 kts | 118° |
| 2026-05-05 15:18 | 33.86295 | 36.74501 | 34917 ft | 505 kts | 118° |
| 2026-05-05 15:19 | 33.83689 | 36.82368 | 34915 ft | 506 kts | 118° |
| 2026-05-05 15:19 | 33.81099 | 36.90200 | 34913 ft | 506 kts | 118° |
| 2026-05-05 15:20 | 33.78495 | 36.98080 | 34913 ft | 506 kts | 118° |
| 2026-05-05 15:20 | 33.75908 | 37.05902 | 34913 ft | 506 kts | 118° |
| 2026-05-05 15:21 | 33.73301 | 37.13776 | 34929 ft | 508 kts | 118° |
| 2026-05-05 15:21 | 33.71128 | 37.20330 | 34931 ft | 508 kts | 119° |
| 2026-05-05 15:22 | 33.68514 | 37.28209 | 34929 ft | 507 kts | 119° |
| 2026-05-05 15:22 | 33.65895 | 37.36085 | 34926 ft | 507 kts | 119° |
| 2026-05-05 15:23 | 33.63276 | 37.43944 | 34923 ft | 507 kts | 119° |
| 2026-05-05 15:23 | 33.60668 | 37.51752 | 34921 ft | 503 kts | 119° |
| 2026-05-05 15:24 | 33.58039 | 37.59461 | 34914 ft | 495 kts | 124° |
| 2026-05-05 15:24 | 33.56208 | 37.62881 | 34915 ft | 480 kts | 137° |
| 2026-05-05 15:24 | 33.53860 | 37.65633 | 34917 ft | 464 kts | 151° |
| 2026-05-05 15:24 | 33.51168 | 37.67629 | 34921 ft | 449 kts | 162° |
| 2026-05-05 15:25 | 33.48410 | 37.69270 | 34919 ft | 448 kts | 163° |
| 2026-05-05 15:25 | 33.42803 | 37.72564 | 34916 ft | 447 kts | 163° |
| 2026-05-05 15:26 | 33.37182 | 37.75827 | 34915 ft | 447 kts | 164° |
| 2026-05-05 15:26 | 33.31614 | 37.79042 | 34914 ft | 447 kts | 164° |
| 2026-05-05 15:27 | 33.26006 | 37.82268 | 34913 ft | 447 kts | 164° |
| 2026-05-05 15:27 | 33.20398 | 37.85482 | 34912 ft | 447 kts | 164° |
| 2026-05-05 15:28 | 33.14788 | 37.88689 | 34910 ft | 446 kts | 165° |
| 2026-05-05 15:28 | 33.09182 | 37.91884 | 34909 ft | 446 kts | 165° |
| 2026-05-05 15:29 | 33.03610 | 37.95052 | 34907 ft | 446 kts | 165° |
| 2026-05-05 15:29 | 32.98010 | 37.98230 | 34906 ft | 445 kts | 165° |
| 2026-05-05 15:30 | 32.92419 | 38.01456 | 34908 ft | 447 kts | 164° |
| 2026-05-05 15:30 | 32.86876 | 38.04735 | 34912 ft | 447 kts | 163° |
| 2026-05-05 15:31 | 32.81291 | 38.08042 | 34921 ft | 449 kts | 162° |
| 2026-05-05 15:31 | 32.75680 | 38.11365 | 34938 ft | 452 kts | 161° |
| 2026-05-05 15:32 | 32.70060 | 38.14692 | 34956 ft | 453 kts | 160° |
| 2026-05-05 15:32 | 32.64397 | 38.18045 | 34970 ft | 454 kts | 159° |
| 2026-05-05 15:33 | 32.58743 | 38.21393 | 34980 ft | 455 kts | 158° |
| 2026-05-05 15:33 | 32.53077 | 38.24751 | 34985 ft | 455 kts | 158° |
| 2026-05-05 15:34 | 32.47450 | 38.28085 | 34986 ft | 455 kts | 158° |
| 2026-05-05 15:34 | 32.41783 | 38.31439 | 34985 ft | 454 kts | 158° |
| 2026-05-05 15:35 | 32.36127 | 38.34785 | 34981 ft | 453 kts | 159° |
| 2026-05-05 15:35 | 32.30513 | 38.38104 | 34974 ft | 452 kts | 160° |
| 2026-05-05 15:36 | 32.24889 | 38.41422 | 34966 ft | 451 kts | 161° |
| 2026-05-05 15:36 | 32.19274 | 38.44729 | 34958 ft | 450 kts | 162° |
| 2026-05-05 15:37 | 32.13667 | 38.48022 | 34949 ft | 449 kts | 163° |
| 2026-05-05 15:37 | 32.08092 | 38.51308 | 34936 ft | 444 kts | 166° |
| 2026-05-05 15:38 | 32.02586 | 38.54525 | 34932 ft | 444 kts | 166° |
| 2026-05-05 15:38 | 31.97031 | 38.57757 | 34932 ft | 445 kts | 166° |
| 2026-05-05 15:39 | 31.91482 | 38.60985 | 34934 ft | 445 kts | 166° |
| 2026-05-05 15:39 | 31.85917 | 38.64193 | 34939 ft | 445 kts | 167° |
| 2026-05-05 15:40 | 31.80352 | 38.67400 | 34946 ft | 446 kts | 167° |
| 2026-05-05 15:40 | 31.74818 | 38.70595 | 34954 ft | 447 kts | 166° |
| 2026-05-05 15:40 | 31.72078 | 38.72406 | 34955 ft | 458 kts | 160° |
| 2026-05-05 15:41 | 31.69478 | 38.74659 | 34957 ft | 472 kts | 152° |
| 2026-05-05 15:41 | 31.67075 | 38.77384 | 34957 ft | 486 kts | 144° |
| 2026-05-05 15:41 | 31.64823 | 38.80353 | 34956 ft | 487 kts | 143° |
| 2026-05-05 15:42 | 31.60345 | 38.86327 | 34948 ft | 487 kts | 143° |
| 2026-05-05 15:42 | 31.55878 | 38.92306 | 34936 ft | 486 kts | 143° |
| 2026-05-05 15:43 | 31.51423 | 38.98278 | 34923 ft | 486 kts | 143° |
| 2026-05-05 15:43 | 31.47002 | 39.04210 | 34909 ft | 486 kts | 143° |
| 2026-05-05 15:44 | 31.42549 | 39.10185 | 34895 ft | 486 kts | 143° |
| 2026-05-05 15:44 | 31.38096 | 39.16159 | 34882 ft | 486 kts | 143° |
| 2026-05-05 15:45 | 31.33648 | 39.22124 | 34871 ft | 486 kts | 143° |
| 2026-05-05 15:45 | 31.29200 | 39.28083 | 34870 ft | 486 kts | 143° |
| 2026-05-05 15:46 | 31.24776 | 39.34003 | 34870 ft | 486 kts | 143° |
| 2026-05-05 15:46 | 31.20324 | 39.39956 | 34872 ft | 485 kts | 143° |
| 2026-05-05 15:47 | 31.15872 | 39.45901 | 34876 ft | 485 kts | 143° |
| 2026-05-05 15:47 | 31.11422 | 39.51834 | 34884 ft | 485 kts | 143° |
| 2026-05-05 15:48 | 31.07003 | 39.57719 | 34893 ft | 485 kts | 143° |
| 2026-05-05 15:48 | 31.02530 | 39.63667 | 34903 ft | 485 kts | 143° |
| 2026-05-05 15:49 | 30.98122 | 39.69521 | 34909 ft | 484 kts | 143° |
| 2026-05-05 15:49 | 30.93680 | 39.75409 | 34918 ft | 484 kts | 143° |
| 2026-05-05 15:50 | 30.89236 | 39.81293 | 34923 ft | 484 kts | 143° |
| 2026-05-05 15:50 | 30.84786 | 39.87175 | 34925 ft | 484 kts | 143° |
| 2026-05-05 15:51 | 30.80333 | 39.93052 | 34926 ft | 483 kts | 143° |
| 2026-05-05 15:51 | 30.75882 | 39.98918 | 34926 ft | 483 kts | 143° |
| 2026-05-05 15:52 | 30.71464 | 40.04733 | 34932 ft | 482 kts | 143° |
| 2026-05-05 15:52 | 30.67014 | 40.10580 | 34934 ft | 482 kts | 143° |
| 2026-05-05 15:53 | 30.62566 | 40.16416 | 34934 ft | 482 kts | 143° |
| 2026-05-05 15:53 | 30.58357 | 40.22561 | 34930 ft | 501 kts | 131° |
| 2026-05-05 15:54 | 30.54941 | 40.29649 | 34934 ft | 504 kts | 129° |
| 2026-05-05 15:54 | 30.51562 | 40.36787 | 34934 ft | 504 kts | 129° |
| 2026-05-05 15:55 | 30.48198 | 40.43928 | 34934 ft | 504 kts | 128° |
| 2026-05-05 15:55 | 30.44841 | 40.51075 | 34934 ft | 504 kts | 128° |
| 2026-05-05 15:56 | 30.41520 | 40.58163 | 34933 ft | 503 kts | 128° |
| 2026-05-05 15:56 | 30.37561 | 40.64632 | 34933 ft | 483 kts | 142° |
| 2026-05-05 15:57 | 30.32773 | 40.69927 | 34934 ft | 474 kts | 149° |
| 2026-05-05 15:57 | 30.27888 | 40.75041 | 34934 ft | 473 kts | 149° |
| 2026-05-05 15:58 | 30.22989 | 40.80157 | 34934 ft | 473 kts | 149° |
| 2026-05-05 15:58 | 30.18124 | 40.85229 | 34934 ft | 473 kts | 149° |
| 2026-05-05 15:59 | 30.13218 | 40.90334 | 34940 ft | 474 kts | 149° |
| 2026-05-05 15:59 | 30.08318 | 40.95425 | 34938 ft | 474 kts | 149° |
| 2026-05-05 16:00 | 30.03415 | 41.00511 | 34935 ft | 473 kts | 149° |
| 2026-05-05 16:00 | 29.98505 | 41.05595 | 34935 ft | 473 kts | 149° |
| 2026-05-05 16:01 | 29.93629 | 41.10637 | 34935 ft | 473 kts | 149° |
| 2026-05-05 16:01 | 29.88704 | 41.15722 | 34934 ft | 474 kts | 149° |
| 2026-05-05 16:02 | 29.83821 | 41.20757 | 34931 ft | 474 kts | 149° |
| 2026-05-05 16:02 | 29.78904 | 41.25820 | 34930 ft | 474 kts | 149° |
| 2026-05-05 16:03 | 29.73991 | 41.30903 | 34925 ft | 478 kts | 146° |
| 2026-05-05 16:03 | 29.69422 | 41.36586 | 34927 ft | 484 kts | 143° |
| 2026-05-05 16:04 | 29.64887 | 41.42312 | 34924 ft | 484 kts | 143° |
| 2026-05-05 16:04 | 29.60383 | 41.48009 | 34924 ft | 484 kts | 142° |
| 2026-05-05 16:05 | 29.55849 | 41.53749 | 34916 ft | 483 kts | 142° |
| 2026-05-05 16:05 | 29.51325 | 41.59476 | 34913 ft | 484 kts | 142° |
| 2026-05-05 16:06 | 29.46815 | 41.65183 | 34912 ft | 485 kts | 142° |
| 2026-05-05 16:06 | 29.42279 | 41.70921 | 34911 ft | 485 kts | 142° |
| 2026-05-05 16:07 | 29.37739 | 41.76661 | 34910 ft | 485 kts | 142° |
| 2026-05-05 16:07 | 29.33199 | 41.82396 | 34909 ft | 485 kts | 142° |
| 2026-05-05 16:08 | 29.28684 | 41.88094 | 34907 ft | 485 kts | 142° |
| 2026-05-05 16:08 | 29.24145 | 41.93815 | 34907 ft | 485 kts | 142° |
| 2026-05-05 16:09 | 29.19599 | 41.99537 | 34906 ft | 485 kts | 142° |
| 2026-05-05 16:09 | 29.15053 | 42.05252 | 34904 ft | 485 kts | 142° |
| 2026-05-05 16:10 | 29.11270 | 42.10003 | 34904 ft | 485 kts | 142° |
| 2026-05-05 16:10 | 29.05983 | 42.16632 | 34905 ft | 485 kts | 142° |
| 2026-05-05 16:11 | 29.02177 | 42.21361 | 34903 ft | 485 kts | 143° |
| 2026-05-05 16:12 | 28.92981 | 42.32718 | 34908 ft | 487 kts | 143° |
| 2026-05-05 16:13 | 28.81461 | 42.46971 | 34910 ft | 489 kts | 143° |
| 2026-05-05 16:13 | 28.76848 | 42.52677 | 34906 ft | 489 kts | 143° |
| 2026-05-05 16:14 | 28.67629 | 42.64070 | 34905 ft | 490 kts | 143° |
| 2026-05-05 16:15 | 28.58345 | 42.75467 | 34904 ft | 490 kts | 143° |
| 2026-05-05 16:16 | 28.49079 | 42.86815 | 34904 ft | 491 kts | 143° |
| 2026-05-05 16:17 | 28.42089 | 42.95372 | 34910 ft | 492 kts | 143° |
| 2026-05-05 16:18 | 28.35111 | 43.03907 | 34900 ft | 490 kts | 143° |
| 2026-05-05 16:19 | 28.28138 | 43.12424 | 34898 ft | 490 kts | 143° |
| 2026-05-05 16:19 | 28.21180 | 43.20908 | 34897 ft | 490 kts | 143° |
| 2026-05-05 16:20 | 28.11910 | 43.32189 | 34894 ft | 489 kts | 143° |
| 2026-05-05 16:22 | 28.00305 | 43.46270 | 34879 ft | 488 kts | 143° |
| 2026-05-05 16:23 | 27.91043 | 43.57474 | 34867 ft | 488 kts | 143° |
| 2026-05-05 16:23 | 27.84074 | 43.65819 | 34860 ft | 485 kts | 146° |
| 2026-05-05 16:24 | 27.79227 | 43.71079 | 34857 ft | 483 kts | 147° |
| 2026-05-05 16:25 | 27.71932 | 43.78952 | 34854 ft | 483 kts | 147° |
| 2026-05-05 16:25 | 27.64635 | 43.86842 | 34853 ft | 483 kts | 147° |
| 2026-05-05 16:26 | 27.54949 | 43.97322 | 34852 ft | 484 kts | 147° |
| 2026-05-05 16:27 | 27.50083 | 44.02584 | 34845 ft | 484 kts | 147° |
| 2026-05-05 16:27 | 27.45220 | 44.07841 | 34848 ft | 484 kts | 147° |
| 2026-05-05 16:28 | 27.40387 | 44.13062 | 34849 ft | 484 kts | 147° |
| 2026-05-05 16:28 | 27.35522 | 44.18312 | 34849 ft | 484 kts | 147° |
| 2026-05-05 16:29 | 27.30650 | 44.23565 | 34850 ft | 484 kts | 147° |
| 2026-05-05 16:29 | 27.25786 | 44.28805 | 34850 ft | 484 kts | 147° |
| 2026-05-05 16:30 | 27.20910 | 44.34050 | 34851 ft | 484 kts | 147° |
| 2026-05-05 16:30 | 27.16060 | 44.39254 | 34853 ft | 484 kts | 147° |
| 2026-05-05 16:31 | 27.11171 | 44.44462 | 34855 ft | 484 kts | 147° |
| 2026-05-05 16:31 | 27.06286 | 44.49671 | 34857 ft | 483 kts | 147° |
| 2026-05-05 16:32 | 27.01443 | 44.54838 | 34860 ft | 483 kts | 147° |
| 2026-05-05 16:32 | 26.96548 | 44.60050 | 34862 ft | 482 kts | 147° |
| 2026-05-05 16:33 | 26.91705 | 44.65196 | 34866 ft | 483 kts | 147° |
| 2026-05-05 16:33 | 26.86831 | 44.70377 | 34869 ft | 483 kts | 147° |
| 2026-05-05 16:34 | 26.81956 | 44.75559 | 34870 ft | 483 kts | 147° |
| 2026-05-05 16:34 | 26.77069 | 44.80750 | 34871 ft | 482 kts | 147° |
| 2026-05-05 16:35 | 26.72223 | 44.85871 | 34871 ft | 482 kts | 147° |
| 2026-05-05 16:35 | 26.67344 | 44.91022 | 34871 ft | 482 kts | 147° |
| 2026-05-05 16:36 | 26.62460 | 44.96179 | 34871 ft | 482 kts | 147° |
| 2026-05-05 16:36 | 26.57577 | 45.01327 | 34872 ft | 482 kts | 147° |
| 2026-05-05 16:37 | 26.52720 | 45.06439 | 34874 ft | 482 kts | 147° |
| 2026-05-05 16:37 | 26.47839 | 45.11575 | 34874 ft | 481 kts | 146° |
| 2026-05-05 16:38 | 26.42962 | 45.16705 | 34875 ft | 481 kts | 146° |
| 2026-05-05 16:38 | 26.38091 | 45.21826 | 34875 ft | 481 kts | 146° |
| 2026-05-05 16:39 | 26.33243 | 45.26918 | 34875 ft | 481 kts | 146° |
| 2026-05-05 16:39 | 26.28358 | 45.32043 | 34874 ft | 481 kts | 146° |
| 2026-05-05 16:40 | 26.23482 | 45.37157 | 34874 ft | 481 kts | 146° |
| 2026-05-05 16:40 | 26.18644 | 45.42231 | 34874 ft | 480 kts | 146° |
| 2026-05-05 16:41 | 26.13768 | 45.47337 | 34874 ft | 480 kts | 146° |
| 2026-05-05 16:41 | 26.08892 | 45.52440 | 34875 ft | 480 kts | 146° |
| 2026-05-05 16:42 | 26.04029 | 45.57528 | 34875 ft | 480 kts | 146° |
| 2026-05-05 16:42 | 25.99188 | 45.62589 | 34874 ft | 479 kts | 146° |
| 2026-05-05 16:43 | 25.94324 | 45.67671 | 34870 ft | 479 kts | 146° |
| 2026-05-05 16:43 | 25.89464 | 45.72745 | 34870 ft | 479 kts | 146° |
| 2026-05-05 16:44 | 25.84629 | 45.77778 | 34870 ft | 478 kts | 146° |
| 2026-05-05 16:44 | 25.79762 | 45.82830 | 34870 ft | 478 kts | 146° |
| 2026-05-05 16:45 | 25.74898 | 45.87876 | 34868 ft | 478 kts | 146° |
| 2026-05-05 16:45 | 25.70066 | 45.92888 | 34867 ft | 478 kts | 146° |
| 2026-05-05 16:46 | 25.65197 | 45.97936 | 34864 ft | 478 kts | 146° |
| 2026-05-05 16:46 | 25.60341 | 46.02956 | 34857 ft | 476 kts | 145° |
| 2026-05-05 16:47 | 25.55481 | 46.07969 | 34852 ft | 476 kts | 145° |
| 2026-05-05 16:47 | 25.50663 | 46.12939 | 34848 ft | 476 kts | 145° |
| 2026-05-05 16:48 | 25.45815 | 46.17937 | 34843 ft | 476 kts | 144° |
| 2026-05-05 16:48 | 25.40966 | 46.22936 | 34840 ft | 476 kts | 144° |
| 2026-05-05 16:49 | 25.36148 | 46.27898 | 34838 ft | 475 kts | 144° |
| 2026-05-05 16:49 | 25.31303 | 46.32883 | 34829 ft | 475 kts | 144° |
| 2026-05-05 16:50 | 25.26466 | 46.37858 | 34827 ft | 475 kts | 144° |
| 2026-05-05 16:50 | 25.21615 | 46.42841 | 34829 ft | 475 kts | 144° |
| 2026-05-05 16:51 | 25.16778 | 46.47802 | 34845 ft | 473 kts | 143° |
| 2026-05-05 16:51 | 25.11950 | 46.52746 | 34866 ft | 474 kts | 143° |
| 2026-05-05 16:52 | 25.07137 | 46.57678 | 34865 ft | 474 kts | 143° |
| 2026-05-05 16:52 | 25.02292 | 46.62637 | 34861 ft | 475 kts | 142° |
| 2026-05-05 16:53 | 24.98055 | 46.68331 | 34857 ft | 488 kts | 126° |
| 2026-05-05 16:53 | 24.95178 | 46.75136 | 34858 ft | 494 kts | 117° |
| 2026-05-05 16:54 | 24.92499 | 46.82121 | 34862 ft | 493 kts | 117° |
| 2026-05-05 16:54 | 24.89851 | 46.89069 | 34863 ft | 494 kts | 117° |
| 2026-05-05 16:55 | 24.87212 | 46.96020 | 34858 ft | 495 kts | 117° |
| 2026-05-05 16:55 | 24.84557 | 47.03026 | 34855 ft | 495 kts | 117° |
| 2026-05-05 16:56 | 24.81906 | 47.10030 | 34857 ft | 494 kts | 117° |
| 2026-05-05 16:56 | 24.79267 | 47.17006 | 34861 ft | 493 kts | 117° |
| 2026-05-05 16:57 | 24.76647 | 47.23931 | 34864 ft | 493 kts | 117° |
| 2026-05-05 16:57 | 24.74014 | 47.30888 | 34868 ft | 492 kts | 117° |
| 2026-05-05 16:58 | 24.71369 | 47.37866 | 35015 ft | 498 kts | 117° |
| 2026-05-05 16:58 | 24.70035 | 47.41383 | 35193 ft | 499 kts | 117° |
| 2026-05-05 16:58 | 24.69134 | 47.43762 | 35340 ft | 499 kts | 117° |
| 2026-05-05 16:59 | 24.66459 | 47.50820 | 35580 ft | 505 kts | 118° |
| 2026-05-05 16:59 | 24.65104 | 47.54384 | 35872 ft | 503 kts | 117° |
| 2026-05-05 16:59 | 24.63755 | 47.57929 | 36193 ft | 501 kts | 117° |
| 2026-05-05 17:00 | 24.62408 | 47.61469 | 36423 ft | 501 kts | 117° |
| 2026-05-05 17:00 | 24.61062 | 47.65005 | 36661 ft | 501 kts | 117° |
| 2026-05-05 17:00 | 24.59712 | 47.68545 | 36816 ft | 504 kts | 117° |
| 2026-05-05 17:00 | 24.58357 | 47.72098 | 36856 ft | 503 kts | 117° |
| 2026-05-05 17:01 | 24.55677 | 47.79132 | 36869 ft | 501 kts | 117° |
| 2026-05-05 17:01 | 24.53238 | 47.86325 | 36870 ft | 503 kts | 114° |
| 2026-05-05 17:02 | 24.50864 | 47.93546 | 36824 ft | 501 kts | 114° |
| 2026-05-05 17:02 | 24.48504 | 48.00734 | 36816 ft | 501 kts | 114° |
| 2026-05-05 17:03 | 24.46144 | 48.07930 | 36815 ft | 501 kts | 114° |
| 2026-05-05 17:03 | 24.43783 | 48.15131 | 36815 ft | 500 kts | 114° |
| 2026-05-05 17:04 | 24.41424 | 48.22321 | 36815 ft | 500 kts | 114° |
| 2026-05-05 17:04 | 24.39066 | 48.29502 | 36815 ft | 500 kts | 114° |
| 2026-05-05 17:05 | 24.36731 | 48.36609 | 36845 ft | 497 kts | 114° |
| 2026-05-05 17:05 | 24.34381 | 48.43749 | 36859 ft | 497 kts | 114° |
| 2026-05-05 17:06 | 24.32035 | 48.50871 | 36873 ft | 495 kts | 114° |
| 2026-05-05 17:06 | 24.29697 | 48.57956 | 36909 ft | 494 kts | 114° |
| 2026-05-05 17:07 | 24.27370 | 48.64998 | 36921 ft | 493 kts | 114° |
| 2026-05-05 17:07 | 24.25031 | 48.72063 | 36932 ft | 492 kts | 114° |
| 2026-05-05 17:08 | 24.22692 | 48.79119 | 36941 ft | 492 kts | 114° |
| 2026-05-05 17:08 | 24.20351 | 48.86167 | 36948 ft | 491 kts | 114° |
| 2026-05-05 17:09 | 24.17932 | 48.93160 | 36953 ft | 489 kts | 116° |
| 2026-05-05 17:09 | 24.15347 | 49.00023 | 36957 ft | 489 kts | 116° |
| 2026-05-05 17:10 | 24.12796 | 49.06939 | 36963 ft | 489 kts | 116° |